sensor_id;sensor_type;location;lat;lon;timestamp;P1;durP1;ratioP1;P2;durP2;ratioP2
57856;SDS011;43683;48.650;9.290;2022-09-09T00:02:04;4.40;;;2.30;;
57856;SDS011;43683;48.650;9.290;2022-09-09T00:09:34;3.60;;;1.98;;
57856;SDS011;43683;48.650;9.290;2022-09-09T00:14:56;2.97;;;2.10;;
57856;SDS011;43683;48.650;9.290;2022-09-09T00:17:35;3.95;;;2.25;;
57856;SDS011;43683;48.650;9.290;2022-09-09T00:20:14;4.90;;;2.22;;
57856;SDS011;43683;48.650;9.290;2022-09-09T00:23:10;5.70;;;1.88;;
57856;SDS011;43683;48.650;9.290;2022-09-09T00:25:48;5.47;;;1.90;;
57856;SDS011;43683;48.650;9.290;2022-09-09T00:28:25;5.60;;;2.00;;
57856;SDS011;43683;48.650;9.290;2022-09-09T00:30:52;3.72;;;2.20;;
57856;SDS011;43683;48.650;9.290;2022-09-09T00:33:23;2.10;;;1.85;;
57856;SDS011;43683;48.650;9.290;2022-09-09T00:35:51;2.88;;;1.73;;
57856;SDS011;43683;48.650;9.290;2022-09-09T00:38:22;3.05;;;1.77;;
57856;SDS011;43683;48.650;9.290;2022-09-09T00:40:58;3.60;;;2.40;;
57856;SDS011;43683;48.650;9.290;2022-09-09T00:43:42;5.30;;;1.80;;
57856;SDS011;43683;48.650;9.290;2022-09-09T00:46:27;2.65;;;1.80;;
57856;SDS011;43683;48.650;9.290;2022-09-09T00:49:23;3.10;;;1.83;;
57856;SDS011;43683;48.650;9.290;2022-09-09T00:52:16;6.05;;;1.88;;
57856;SDS011;43683;48.650;9.290;2022-09-09T00:55:21;3.35;;;1.63;;
57856;SDS011;43683;48.650;9.290;2022-09-09T00:58:01;2.38;;;1.48;;
57856;SDS011;43683;48.650;9.290;2022-09-09T01:00:31;2.22;;;1.70;;
57856;SDS011;43683;48.650;9.290;2022-09-09T01:05:59;3.08;;;2.05;;
57856;SDS011;43683;48.650;9.290;2022-09-09T01:11:31;2.90;;;1.67;;
57856;SDS011;43683;48.650;9.290;2022-09-09T01:14:27;3.05;;;1.55;;
57856;SDS011;43683;48.650;9.290;2022-09-09T01:16:56;3.97;;;1.83;;
57856;SDS011;43683;48.650;9.290;2022-09-09T01:19:29;3.47;;;1.80;;
57856;SDS011;43683;48.650;9.290;2022-09-09T01:22:44;4.82;;;1.80;;
57856;SDS011;43683;48.650;9.290;2022-09-09T01:27:54;6.57;;;1.77;;
57856;SDS011;43683;48.650;9.290;2022-09-09T01:30:25;2.65;;;1.83;;
57856;SDS011;43683;48.650;9.290;2022-09-09T01:32:54;2.63;;;1.73;;
57856;SDS011;43683;48.650;9.290;2022-09-09T01:37:59;4.28;;;1.80;;
57856;SDS011;43683;48.650;9.290;2022-09-09T01:40:24;3.22;;;1.77;;
57856;SDS011;43683;48.650;9.290;2022-09-09T01:42:51;2.95;;;1.70;;
57856;SDS011;43683;48.650;9.290;2022-09-09T01:45:17;3.73;;;1.90;;
57856;SDS011;43683;48.650;9.290;2022-09-09T01:47:44;3.80;;;1.50;;
57856;SDS011;43683;48.650;9.290;2022-09-09T01:50:11;1.70;;;1.60;;
57856;SDS011;43683;48.650;9.290;2022-09-09T01:52:39;2.58;;;1.73;;
57856;SDS011;43683;48.650;9.290;2022-09-09T01:55:07;4.82;;;1.80;;
57856;SDS011;43683;48.650;9.290;2022-09-09T01:57:37;3.70;;;1.73;;
57856;SDS011;43683;48.650;9.290;2022-09-09T02:00:11;3.38;;;1.85;;
57856;SDS011;43683;48.650;9.290;2022-09-09T02:02:44;4.57;;;1.60;;
57856;SDS011;43683;48.650;9.290;2022-09-09T02:05:25;2.08;;;1.40;;
57856;SDS011;43683;48.650;9.290;2022-09-09T02:10:58;2.72;;;1.65;;
57856;SDS011;43683;48.650;9.290;2022-09-09T02:13:30;3.92;;;1.92;;
57856;SDS011;43683;48.650;9.290;2022-09-09T02:16:05;4.30;;;1.90;;
57856;SDS011;43683;48.650;9.290;2022-09-09T02:18:35;3.10;;;1.80;;
57856;SDS011;43683;48.650;9.290;2022-09-09T02:21:07;3.47;;;1.90;;
57856;SDS011;43683;48.650;9.290;2022-09-09T02:23:35;3.28;;;1.85;;
57856;SDS011;43683;48.650;9.290;2022-09-09T02:26:02;4.53;;;2.13;;
57856;SDS011;43683;48.650;9.290;2022-09-09T02:28:30;5.95;;;2.33;;
57856;SDS011;43683;48.650;9.290;2022-09-09T02:33:24;3.45;;;1.67;;
57856;SDS011;43683;48.650;9.290;2022-09-09T02:35:53;4.53;;;1.75;;
57856;SDS011;43683;48.650;9.290;2022-09-09T02:38:26;5.25;;;2.22;;
57856;SDS011;43683;48.650;9.290;2022-09-09T02:40:57;2.00;;;1.70;;
57856;SDS011;43683;48.650;9.290;2022-09-09T02:43:23;4.57;;;2.10;;
57856;SDS011;43683;48.650;9.290;2022-09-09T02:45:56;2.72;;;2.00;;
57856;SDS011;43683;48.650;9.290;2022-09-09T02:48:30;5.97;;;1.98;;
57856;SDS011;43683;48.650;9.290;2022-09-09T02:51:18;5.47;;;1.90;;
57856;SDS011;43683;48.650;9.290;2022-09-09T02:53:58;7.05;;;2.60;;
57856;SDS011;43683;48.650;9.290;2022-09-09T02:56:32;4.03;;;2.00;;
57856;SDS011;43683;48.650;9.290;2022-09-09T02:59:04;5.07;;;2.10;;
57856;SDS011;43683;48.650;9.290;2022-09-09T03:01:30;2.85;;;1.90;;
57856;SDS011;43683;48.650;9.290;2022-09-09T03:03:56;7.15;;;2.00;;
57856;SDS011;43683;48.650;9.290;2022-09-09T03:06:22;4.38;;;1.83;;
57856;SDS011;43683;48.650;9.290;2022-09-09T03:08:47;5.35;;;2.42;;
57856;SDS011;43683;48.650;9.290;2022-09-09T03:11:14;4.90;;;2.95;;
57856;SDS011;43683;48.650;9.290;2022-09-09T03:13:41;5.55;;;2.42;;
57856;SDS011;43683;48.650;9.290;2022-09-09T03:16:06;2.42;;;1.83;;
57856;SDS011;43683;48.650;9.290;2022-09-09T03:18:32;5.10;;;2.78;;
57856;SDS011;43683;48.650;9.290;2022-09-09T03:20:57;4.00;;;1.98;;
57856;SDS011;43683;48.650;9.290;2022-09-09T03:23:24;4.70;;;2.03;;
57856;SDS011;43683;48.650;9.290;2022-09-09T03:25:50;2.78;;;1.90;;
57856;SDS011;43683;48.650;9.290;2022-09-09T03:28:17;2.83;;;2.08;;
57856;SDS011;43683;48.650;9.290;2022-09-09T03:30:42;4.28;;;2.20;;
57856;SDS011;43683;48.650;9.290;2022-09-09T03:33:08;5.40;;;2.17;;
57856;SDS011;43683;48.650;9.290;2022-09-09T03:35:34;4.65;;;1.92;;
57856;SDS011;43683;48.650;9.290;2022-09-09T03:37:59;3.63;;;2.00;;
57856;SDS011;43683;48.650;9.290;2022-09-09T03:40:25;3.50;;;1.95;;
57856;SDS011;43683;48.650;9.290;2022-09-09T03:42:51;3.35;;;1.80;;
57856;SDS011;43683;48.650;9.290;2022-09-09T03:45:17;3.45;;;1.75;;
57856;SDS011;43683;48.650;9.290;2022-09-09T03:47:42;5.22;;;2.22;;
57856;SDS011;43683;48.650;9.290;2022-09-09T03:50:08;3.17;;;2.05;;
57856;SDS011;43683;48.650;9.290;2022-09-09T03:52:38;3.97;;;2.03;;
57856;SDS011;43683;48.650;9.290;2022-09-09T03:55:05;3.63;;;1.83;;
57856;SDS011;43683;48.650;9.290;2022-09-09T03:57:32;2.85;;;1.90;;
57856;SDS011;43683;48.650;9.290;2022-09-09T04:00:04;3.92;;;2.22;;
57856;SDS011;43683;48.650;9.290;2022-09-09T04:02:31;3.42;;;2.08;;
57856;SDS011;43683;48.650;9.290;2022-09-09T04:04:57;4.82;;;2.10;;
57856;SDS011;43683;48.650;9.290;2022-09-09T04:07:22;7.55;;;2.20;;
57856;SDS011;43683;48.650;9.290;2022-09-09T04:09:48;3.75;;;1.90;;
57856;SDS011;43683;48.650;9.290;2022-09-09T04:12:13;4.20;;;1.88;;
57856;SDS011;43683;48.650;9.290;2022-09-09T04:14:39;4.93;;;2.08;;
57856;SDS011;43683;48.650;9.290;2022-09-09T04:17:04;4.00;;;2.17;;
57856;SDS011;43683;48.650;9.290;2022-09-09T04:19:31;6.60;;;2.20;;
57856;SDS011;43683;48.650;9.290;2022-09-09T04:21:57;2.75;;;2.00;;
57856;SDS011;43683;48.650;9.290;2022-09-09T04:24:22;2.28;;;1.95;;
57856;SDS011;43683;48.650;9.290;2022-09-09T04:26:49;3.03;;;1.70;;
57856;SDS011;43683;48.650;9.290;2022-09-09T04:29:14;2.80;;;1.88;;
57856;SDS011;43683;48.650;9.290;2022-09-09T04:31:40;4.35;;;1.80;;
57856;SDS011;43683;48.650;9.290;2022-09-09T04:34:07;3.55;;;1.65;;
57856;SDS011;43683;48.650;9.290;2022-09-09T04:36:34;3.85;;;1.90;;
57856;SDS011;43683;48.650;9.290;2022-09-09T04:39:00;2.95;;;2.00;;
57856;SDS011;43683;48.650;9.290;2022-09-09T04:41:26;3.60;;;1.80;;
57856;SDS011;43683;48.650;9.290;2022-09-09T04:43:52;3.95;;;1.88;;
57856;SDS011;43683;48.650;9.290;2022-09-09T04:46:18;3.92;;;1.58;;
57856;SDS011;43683;48.650;9.290;2022-09-09T04:48:44;5.03;;;1.90;;
57856;SDS011;43683;48.650;9.290;2022-09-09T04:51:11;3.25;;;1.80;;
57856;SDS011;43683;48.650;9.290;2022-09-09T04:53:38;3.42;;;1.83;;
57856;SDS011;43683;48.650;9.290;2022-09-09T04:56:09;3.47;;;1.73;;
57856;SDS011;43683;48.650;9.290;2022-09-09T04:58:37;2.45;;;2.08;;
57856;SDS011;43683;48.650;9.290;2022-09-09T05:01:07;3.33;;;2.05;;
57856;SDS011;43683;48.650;9.290;2022-09-09T05:03:37;4.32;;;2.00;;
57856;SDS011;43683;48.650;9.290;2022-09-09T05:06:04;3.35;;;1.60;;
57856;SDS011;43683;48.650;9.290;2022-09-09T05:08:35;3.50;;;1.80;;
57856;SDS011;43683;48.650;9.290;2022-09-09T05:11:18;2.90;;;1.90;;
57856;SDS011;43683;48.650;9.290;2022-09-09T05:13:45;4.45;;;1.73;;
57856;SDS011;43683;48.650;9.290;2022-09-09T05:16:11;3.67;;;2.13;;
57856;SDS011;43683;48.650;9.290;2022-09-09T05:18:39;3.53;;;1.98;;
57856;SDS011;43683;48.650;9.290;2022-09-09T05:21:05;3.90;;;2.30;;
57856;SDS011;43683;48.650;9.290;2022-09-09T05:23:31;4.30;;;1.92;;
57856;SDS011;43683;48.650;9.290;2022-09-09T05:25:58;3.17;;;2.00;;
57856;SDS011;43683;48.650;9.290;2022-09-09T05:28:25;4.50;;;2.15;;
57856;SDS011;43683;48.650;9.290;2022-09-09T05:30:55;3.78;;;2.00;;
57856;SDS011;43683;48.650;9.290;2022-09-09T05:33:22;3.53;;;1.98;;
57856;SDS011;43683;48.650;9.290;2022-09-09T05:35:48;3.17;;;1.92;;
57856;SDS011;43683;48.650;9.290;2022-09-09T05:38:23;4.38;;;1.77;;
57856;SDS011;43683;48.650;9.290;2022-09-09T05:40:50;3.83;;;2.00;;
57856;SDS011;43683;48.650;9.290;2022-09-09T05:43:17;4.80;;;2.00;;
57856;SDS011;43683;48.650;9.290;2022-09-09T05:45:43;3.00;;;1.80;;
57856;SDS011;43683;48.650;9.290;2022-09-09T05:48:08;2.97;;;1.70;;
57856;SDS011;43683;48.650;9.290;2022-09-09T05:50:34;2.53;;;1.50;;
57856;SDS011;43683;48.650;9.290;2022-09-09T05:52:59;3.42;;;1.48;;
57856;SDS011;43683;48.650;9.290;2022-09-09T05:55:25;2.40;;;1.80;;
57856;SDS011;43683;48.650;9.290;2022-09-09T05:57:50;6.63;;;2.40;;
57856;SDS011;43683;48.650;9.290;2022-09-09T06:00:16;3.45;;;1.70;;
57856;SDS011;43683;48.650;9.290;2022-09-09T06:02:43;3.60;;;1.70;;
57856;SDS011;43683;48.650;9.290;2022-09-09T06:05:08;3.22;;;1.50;;
57856;SDS011;43683;48.650;9.290;2022-09-09T06:07:35;2.75;;;1.90;;
57856;SDS011;43683;48.650;9.290;2022-09-09T06:10:02;4.25;;;2.25;;
57856;SDS011;43683;48.650;9.290;2022-09-09T06:12:28;4.13;;;1.90;;
57856;SDS011;43683;48.650;9.290;2022-09-09T06:14:53;2.33;;;1.95;;
57856;SDS011;43683;48.650;9.290;2022-09-09T06:17:19;10.80;;;2.63;;
57856;SDS011;43683;48.650;9.290;2022-09-09T06:19:44;3.28;;;1.90;;
57856;SDS011;43683;48.650;9.290;2022-09-09T06:22:10;4.53;;;2.20;;
57856;SDS011;43683;48.650;9.290;2022-09-09T06:24:37;2.45;;;1.80;;
57856;SDS011;43683;48.650;9.290;2022-09-09T06:27:03;6.30;;;1.88;;
57856;SDS011;43683;48.650;9.290;2022-09-09T06:29:30;4.60;;;1.80;;
57856;SDS011;43683;48.650;9.290;2022-09-09T06:31:55;1.88;;;1.55;;
57856;SDS011;43683;48.650;9.290;2022-09-09T06:34:21;5.68;;;1.80;;
57856;SDS011;43683;48.650;9.290;2022-09-09T06:36:47;2.13;;;1.25;;
57856;SDS011;43683;48.650;9.290;2022-09-09T06:39:12;3.70;;;1.60;;
57856;SDS011;43683;48.650;9.290;2022-09-09T06:44:07;3.75;;;1.52;;
57856;SDS011;43683;48.650;9.290;2022-09-09T06:46:32;2.72;;;1.25;;
57856;SDS011;43683;48.650;9.290;2022-09-09T06:48:58;1.08;;;1.00;;
57856;SDS011;43683;48.650;9.290;2022-09-09T06:51:31;1.65;;;1.45;;
57856;SDS011;43683;48.650;9.290;2022-09-09T06:53:59;3.42;;;1.40;;
57856;SDS011;43683;48.650;9.290;2022-09-09T06:59:00;2.38;;;1.30;;
57856;SDS011;43683;48.650;9.290;2022-09-09T07:01:29;2.38;;;1.23;;
57856;SDS011;43683;48.650;9.290;2022-09-09T07:03:56;1.45;;;1.35;;
57856;SDS011;43683;48.650;9.290;2022-09-09T07:06:27;1.73;;;1.10;;
57856;SDS011;43683;48.650;9.290;2022-09-09T07:08:55;2.88;;;1.20;;
57856;SDS011;43683;48.650;9.290;2022-09-09T07:11:23;2.85;;;1.42;;
57856;SDS011;43683;48.650;9.290;2022-09-09T07:13:52;2.05;;;1.50;;
57856;SDS011;43683;48.650;9.290;2022-09-09T07:16:18;3.08;;;1.20;;
57856;SDS011;43683;48.650;9.290;2022-09-09T07:18:45;3.10;;;1.17;;
57856;SDS011;43683;48.650;9.290;2022-09-09T07:21:12;1.70;;;1.08;;
57856;SDS011;43683;48.650;9.290;2022-09-09T07:26:11;3.25;;;1.35;;
57856;SDS011;43683;48.650;9.290;2022-09-09T07:28:40;3.50;;;1.20;;
57856;SDS011;43683;48.650;9.290;2022-09-09T07:31:06;2.53;;;1.25;;
57856;SDS011;43683;48.650;9.290;2022-09-09T07:33:38;2.67;;;1.50;;
57856;SDS011;43683;48.650;9.290;2022-09-09T07:36:08;1.35;;;1.02;;
57856;SDS011;43683;48.650;9.290;2022-09-09T07:38:38;3.65;;;1.40;;
57856;SDS011;43683;48.650;9.290;2022-09-09T07:41:08;1.80;;;1.20;;
57856;SDS011;43683;48.650;9.290;2022-09-09T07:43:39;1.35;;;1.20;;
57856;SDS011;43683;48.650;9.290;2022-09-09T07:46:05;2.10;;;1.00;;
57856;SDS011;43683;48.650;9.290;2022-09-09T07:48:31;1.55;;;1.13;;
57856;SDS011;43683;48.650;9.290;2022-09-09T07:51:04;2.20;;;1.10;;
57856;SDS011;43683;48.650;9.290;2022-09-09T07:53:32;1.83;;;1.30;;
57856;SDS011;43683;48.650;9.290;2022-09-09T07:56:05;1.73;;;1.05;;
57856;SDS011;43683;48.650;9.290;2022-09-09T07:58:32;1.70;;;0.90;;
57856;SDS011;43683;48.650;9.290;2022-09-09T08:00:58;1.48;;;1.00;;
57856;SDS011;43683;48.650;9.290;2022-09-09T08:03:24;1.75;;;1.10;;
57856;SDS011;43683;48.650;9.290;2022-09-09T08:05:49;2.45;;;1.52;;
57856;SDS011;43683;48.650;9.290;2022-09-09T08:08:15;2.03;;;1.15;;
57856;SDS011;43683;48.650;9.290;2022-09-09T08:10:41;1.80;;;1.10;;
57856;SDS011;43683;48.650;9.290;2022-09-09T08:13:08;2.65;;;1.10;;
57856;SDS011;43683;48.650;9.290;2022-09-09T08:15:34;1.05;;;1.00;;
57856;SDS011;43683;48.650;9.290;2022-09-09T08:17:59;2.40;;;1.05;;
57856;SDS011;43683;48.650;9.290;2022-09-09T08:20:25;0.80;;;0.80;;
57856;SDS011;43683;48.650;9.290;2022-09-09T08:22:50;3.20;;;1.20;;
57856;SDS011;43683;48.650;9.290;2022-09-09T08:25:16;2.50;;;1.00;;
57856;SDS011;43683;48.650;9.290;2022-09-09T08:27:41;3.65;;;1.30;;
57856;SDS011;43683;48.650;9.290;2022-09-09T08:30:07;2.47;;;1.00;;
57856;SDS011;43683;48.650;9.290;2022-09-09T08:32:33;7.68;;;1.35;;
57856;SDS011;43683;48.650;9.290;2022-09-09T08:35:00;2.33;;;1.30;;
57856;SDS011;43683;48.650;9.290;2022-09-09T08:37:25;1.77;;;1.02;;
57856;SDS011;43683;48.650;9.290;2022-09-09T08:39:51;2.33;;;1.20;;
57856;SDS011;43683;48.650;9.290;2022-09-09T08:50:53;4.57;;;1.40;;
57856;SDS011;43683;48.650;9.290;2022-09-09T08:53:27;3.55;;;1.45;;
57856;SDS011;43683;48.650;9.290;2022-09-09T08:55:58;1.30;;;1.05;;
57856;SDS011;43683;48.650;9.290;2022-09-09T08:58:27;5.10;;;1.17;;
57856;SDS011;43683;48.650;9.290;2022-09-09T09:09:02;2.05;;;1.40;;
57856;SDS011;43683;48.650;9.290;2022-09-09T09:11:37;3.40;;;1.20;;
57856;SDS011;43683;48.650;9.290;2022-09-09T09:14:11;2.15;;;1.13;;
57856;SDS011;43683;48.650;9.290;2022-09-09T09:19:13;4.07;;;1.17;;
57856;SDS011;43683;48.650;9.290;2022-09-09T09:24:42;2.05;;;1.30;;
57856;SDS011;43683;48.650;9.290;2022-09-09T09:27:31;3.80;;;0.95;;
57856;SDS011;43683;48.650;9.290;2022-09-09T09:29:59;3.03;;;1.10;;
57856;SDS011;43683;48.650;9.290;2022-09-09T09:32:40;1.75;;;0.98;;
57856;SDS011;43683;48.650;9.290;2022-09-09T09:35:23;2.97;;;1.13;;
57856;SDS011;43683;48.650;9.290;2022-09-09T09:37:49;5.07;;;1.10;;
57856;SDS011;43683;48.650;9.290;2022-09-09T09:40:16;1.50;;;0.80;;
57856;SDS011;43683;48.650;9.290;2022-09-09T09:42:48;3.75;;;1.05;;
57856;SDS011;43683;48.650;9.290;2022-09-09T09:45:34;4.03;;;0.90;;
57856;SDS011;43683;48.650;9.290;2022-09-09T09:48:09;0.82;;;0.60;;
57856;SDS011;43683;48.650;9.290;2022-09-09T09:50:39;2.28;;;1.00;;
57856;SDS011;43683;48.650;9.290;2022-09-09T09:58:31;3.03;;;0.68;;
57856;SDS011;43683;48.650;9.290;2022-09-09T10:00:59;1.33;;;0.85;;
57856;SDS011;43683;48.650;9.290;2022-09-09T10:03:26;4.25;;;0.95;;
57856;SDS011;43683;48.650;9.290;2022-09-09T10:05:54;2.42;;;0.80;;
57856;SDS011;43683;48.650;9.290;2022-09-09T10:14:06;2.83;;;0.55;;
57856;SDS011;43683;48.650;9.290;2022-09-09T10:27:54;1.40;;;0.70;;
57856;SDS011;43683;48.650;9.290;2022-09-09T10:41:24;4.70;;;0.90;;
57856;SDS011;43683;48.650;9.290;2022-09-09T10:49:27;1.70;;;0.70;;
57856;SDS011;43683;48.650;9.290;2022-09-09T10:52:15;2.55;;;0.80;;
57856;SDS011;43683;48.650;9.290;2022-09-09T10:54:56;1.88;;;0.73;;
57856;SDS011;43683;48.650;9.290;2022-09-09T10:57:50;1.73;;;0.75;;
57856;SDS011;43683;48.650;9.290;2022-09-09T11:00:19;3.13;;;0.95;;
57856;SDS011;43683;48.650;9.290;2022-09-09T11:02:50;1.80;;;0.68;;
57856;SDS011;43683;48.650;9.290;2022-09-09T11:05:27;3.10;;;0.90;;
57856;SDS011;43683;48.650;9.290;2022-09-09T11:08:18;1.42;;;0.70;;
57856;SDS011;43683;48.650;9.290;2022-09-09T11:10:53;1.80;;;0.82;;
57856;SDS011;43683;48.650;9.290;2022-09-09T11:13:38;1.58;;;0.80;;
57856;SDS011;43683;48.650;9.290;2022-09-09T11:18:50;1.42;;;0.60;;
57856;SDS011;43683;48.650;9.290;2022-09-09T11:21:22;1.33;;;0.65;;
57856;SDS011;43683;48.650;9.290;2022-09-09T11:23:54;3.22;;;0.68;;
57856;SDS011;43683;48.650;9.290;2022-09-09T11:26:32;1.83;;;0.70;;
57856;SDS011;43683;48.650;9.290;2022-09-09T11:29:25;0.82;;;0.80;;
57856;SDS011;43683;48.650;9.290;2022-09-09T11:32:09;2.55;;;0.90;;
57856;SDS011;43683;48.650;9.290;2022-09-09T11:40:22;2.80;;;1.40;;
57856;SDS011;43683;48.650;9.290;2022-09-09T11:43:00;2.40;;;0.82;;
57856;SDS011;43683;48.650;9.290;2022-09-09T11:45:30;2.88;;;1.02;;
57856;SDS011;43683;48.650;9.290;2022-09-09T11:47:58;2.65;;;0.80;;
57856;SDS011;43683;48.650;9.290;2022-09-09T11:52:51;1.08;;;0.80;;
57856;SDS011;43683;48.650;9.290;2022-09-09T11:55:48;0.82;;;0.75;;
57856;SDS011;43683;48.650;9.290;2022-09-09T11:58:26;0.60;;;0.60;;
57856;SDS011;43683;48.650;9.290;2022-09-09T12:00:57;1.05;;;0.63;;
57856;SDS011;43683;48.650;9.290;2022-09-09T12:08:39;0.55;;;0.50;;
57856;SDS011;43683;48.650;9.290;2022-09-09T12:11:07;0.38;;;0.38;;
57856;SDS011;43683;48.650;9.290;2022-09-09T12:13:33;0.50;;;0.40;;
57856;SDS011;43683;48.650;9.290;2022-09-09T12:15:59;2.63;;;0.47;;
57856;SDS011;43683;48.650;9.290;2022-09-09T12:18:34;2.05;;;0.50;;
57856;SDS011;43683;48.650;9.290;2022-09-09T12:23:52;0.30;;;0.30;;
57856;SDS011;43683;48.650;9.290;2022-09-09T12:29:12;1.25;;;0.40;;
57856;SDS011;43683;48.650;9.290;2022-09-09T12:31:57;1.33;;;0.40;;
57856;SDS011;43683;48.650;9.290;2022-09-09T12:34:36;0.85;;;0.45;;
57856;SDS011;43683;48.650;9.290;2022-09-09T12:39:49;2.40;;;0.50;;
57856;SDS011;43683;48.650;9.290;2022-09-09T12:42:22;1.48;;;0.40;;
57856;SDS011;43683;48.650;9.290;2022-09-09T12:44:52;1.52;;;0.40;;
57856;SDS011;43683;48.650;9.290;2022-09-09T12:47:24;2.53;;;0.50;;
57856;SDS011;43683;48.650;9.290;2022-09-09T12:49:54;2.58;;;0.50;;
57856;SDS011;43683;48.650;9.290;2022-09-09T12:52:31;2.38;;;0.50;;
57856;SDS011;43683;48.650;9.290;2022-09-09T12:55:00;2.22;;;0.55;;
57856;SDS011;43683;48.650;9.290;2022-09-09T12:57:30;2.45;;;0.57;;
57856;SDS011;43683;48.650;9.290;2022-09-09T13:00:04;1.85;;;0.73;;
57856;SDS011;43683;48.650;9.290;2022-09-09T13:02:33;1.65;;;0.50;;
57856;SDS011;43683;48.650;9.290;2022-09-09T13:05:06;2.63;;;2.08;;
57856;SDS011;43683;48.650;9.290;2022-09-09T13:07:39;2.47;;;0.60;;
57856;SDS011;43683;48.650;9.290;2022-09-09T13:10:05;0.90;;;0.40;;
57856;SDS011;43683;48.650;9.290;2022-09-09T13:12:31;0.77;;;0.40;;
57856;SDS011;43683;48.650;9.290;2022-09-09T13:14:57;2.60;;;0.70;;
57856;SDS011;43683;48.650;9.290;2022-09-09T13:17:26;9.57;;;1.17;;
57856;SDS011;43683;48.650;9.290;2022-09-09T13:19:54;2.03;;;0.65;;
57856;SDS011;43683;48.650;9.290;2022-09-09T13:22:36;0.57;;;0.50;;
57856;SDS011;43683;48.650;9.290;2022-09-09T13:25:05;2.22;;;0.60;;
57856;SDS011;43683;48.650;9.290;2022-09-09T13:27:34;5.18;;;0.77;;
57856;SDS011;43683;48.650;9.290;2022-09-09T13:35:34;3.08;;;0.60;;
57856;SDS011;43683;48.650;9.290;2022-09-09T13:38:12;1.90;;;0.93;;
57856;SDS011;43683;48.650;9.290;2022-09-09T13:43:31;2.63;;;0.70;;
57856;SDS011;43683;48.650;9.290;2022-09-09T13:54:12;3.08;;;0.60;;
57856;SDS011;43683;48.650;9.290;2022-09-09T13:56:39;1.48;;;0.57;;
57856;SDS011;43683;48.650;9.290;2022-09-09T13:59:09;1.10;;;0.65;;
57856;SDS011;43683;48.650;9.290;2022-09-09T14:01:37;2.25;;;0.50;;
57856;SDS011;43683;48.650;9.290;2022-09-09T14:04:03;1.30;;;0.43;;
57856;SDS011;43683;48.650;9.290;2022-09-09T14:06:31;1.27;;;0.50;;
57856;SDS011;43683;48.650;9.290;2022-09-09T14:08:57;1.42;;;0.40;;
57856;SDS011;43683;48.650;9.290;2022-09-09T14:11:23;1.13;;;0.35;;
57856;SDS011;43683;48.650;9.290;2022-09-09T14:13:49;1.40;;;0.40;;
57856;SDS011;43683;48.650;9.290;2022-09-09T14:16:15;2.75;;;0.50;;
57856;SDS011;43683;48.650;9.290;2022-09-09T14:18:42;2.55;;;0.50;;
57856;SDS011;43683;48.650;9.290;2022-09-09T14:21:08;0.35;;;0.30;;
57856;SDS011;43683;48.650;9.290;2022-09-09T14:23:34;0.47;;;0.40;;
57856;SDS011;43683;48.650;9.290;2022-09-09T14:26:00;1.38;;;0.40;;
57856;SDS011;43683;48.650;9.290;2022-09-09T14:28:26;0.65;;;0.52;;
57856;SDS011;43683;48.650;9.290;2022-09-09T14:30:53;2.72;;;0.50;;
57856;SDS011;43683;48.650;9.290;2022-09-09T14:33:18;2.58;;;0.52;;
57856;SDS011;43683;48.650;9.290;2022-09-09T14:35:44;2.15;;;0.63;;
57856;SDS011;43683;48.650;9.290;2022-09-09T14:38:10;2.13;;;0.60;;
57856;SDS011;43683;48.650;9.290;2022-09-09T14:40:36;2.90;;;1.02;;
57856;SDS011;43683;48.650;9.290;2022-09-09T14:45:29;2.20;;;0.40;;
57856;SDS011;43683;48.650;9.290;2022-09-09T14:47:54;3.55;;;0.52;;
57856;SDS011;43683;48.650;9.290;2022-09-09T14:50:20;1.45;;;0.50;;
57856;SDS011;43683;48.650;9.290;2022-09-09T14:52:47;0.57;;;0.35;;
57856;SDS011;43683;48.650;9.290;2022-09-09T14:55:13;3.17;;;0.60;;
57856;SDS011;43683;48.650;9.290;2022-09-09T14:57:40;4.13;;;0.80;;
57856;SDS011;43683;48.650;9.290;2022-09-09T15:00:06;1.10;;;0.45;;
57856;SDS011;43683;48.650;9.290;2022-09-09T15:02:33;0.88;;;0.50;;
57856;SDS011;43683;48.650;9.290;2022-09-09T15:04:59;3.47;;;0.55;;
57856;SDS011;43683;48.650;9.290;2022-09-09T15:07:25;1.00;;;0.50;;
57856;SDS011;43683;48.650;9.290;2022-09-09T15:09:52;1.95;;;0.30;;
57856;SDS011;43683;48.650;9.290;2022-09-09T15:12:18;3.28;;;1.08;;
57856;SDS011;43683;48.650;9.290;2022-09-09T15:14:44;3.27;;;0.83;;
57856;SDS011;43683;48.650;9.290;2022-09-09T15:17:10;1.95;;;0.55;;
57856;SDS011;43683;48.650;9.290;2022-09-09T15:19:36;1.67;;;0.70;;
57856;SDS011;43683;48.650;9.290;2022-09-09T15:22:02;2.13;;;0.60;;
57856;SDS011;43683;48.650;9.290;2022-09-09T15:24:30;4.00;;;0.77;;
57856;SDS011;43683;48.650;9.290;2022-09-09T15:26:56;0.60;;;0.50;;
57856;SDS011;43683;48.650;9.290;2022-09-09T15:29:22;0.82;;;0.50;;
57856;SDS011;43683;48.650;9.290;2022-09-09T15:31:48;1.95;;;0.80;;
57856;SDS011;43683;48.650;9.290;2022-09-09T15:34:13;1.58;;;0.50;;
57856;SDS011;43683;48.650;9.290;2022-09-09T15:36:40;2.22;;;0.60;;
57856;SDS011;43683;48.650;9.290;2022-09-09T15:39:08;0.80;;;0.30;;
57856;SDS011;43683;48.650;9.290;2022-09-09T15:41:37;1.17;;;0.50;;
57856;SDS011;43683;48.650;9.290;2022-09-09T15:44:03;2.45;;;0.50;;
57856;SDS011;43683;48.650;9.290;2022-09-09T15:46:40;2.70;;;0.70;;
57856;SDS011;43683;48.650;9.290;2022-09-09T15:49:11;1.92;;;0.50;;
57856;SDS011;43683;48.650;9.290;2022-09-09T15:51:40;0.80;;;0.45;;
57856;SDS011;43683;48.650;9.290;2022-09-09T15:54:07;2.17;;;0.60;;
57856;SDS011;43683;48.650;9.290;2022-09-09T15:56:34;5.07;;;0.68;;
57856;SDS011;43683;48.650;9.290;2022-09-09T15:59:00;3.90;;;0.73;;
57856;SDS011;43683;48.650;9.290;2022-09-09T16:01:28;3.55;;;0.60;;
57856;SDS011;43683;48.650;9.290;2022-09-09T16:06:22;2.40;;;0.65;;
57856;SDS011;43683;48.650;9.290;2022-09-09T16:08:49;2.78;;;0.73;;
57856;SDS011;43683;48.650;9.290;2022-09-09T16:11:21;2.47;;;0.60;;
57856;SDS011;43683;48.650;9.290;2022-09-09T16:13:48;0.60;;;0.55;;
57856;SDS011;43683;48.650;9.290;2022-09-09T16:16:17;3.03;;;0.73;;
57856;SDS011;43683;48.650;9.290;2022-09-09T16:18:47;4.18;;;0.60;;
57856;SDS011;43683;48.650;9.290;2022-09-09T16:21:20;0.50;;;0.50;;
57856;SDS011;43683;48.650;9.290;2022-09-09T16:23:49;1.73;;;0.50;;
57856;SDS011;43683;48.650;9.290;2022-09-09T16:26:17;1.85;;;0.60;;
57856;SDS011;43683;48.650;9.290;2022-09-09T16:28:43;1.10;;;0.60;;
57856;SDS011;43683;48.650;9.290;2022-09-09T16:31:12;1.42;;;0.52;;
57856;SDS011;43683;48.650;9.290;2022-09-09T16:33:41;0.65;;;0.60;;
57856;SDS011;43683;48.650;9.290;2022-09-09T16:36:07;3.25;;;1.25;;
57856;SDS011;43683;48.650;9.290;2022-09-09T16:38:35;1.95;;;0.68;;
57856;SDS011;43683;48.650;9.290;2022-09-09T16:41:01;2.67;;;0.60;;
57856;SDS011;43683;48.650;9.290;2022-09-09T16:43:30;1.65;;;0.47;;
57856;SDS011;43683;48.650;9.290;2022-09-09T16:45:55;1.20;;;0.55;;
57856;SDS011;43683;48.650;9.290;2022-09-09T16:48:21;2.90;;;0.40;;
57856;SDS011;43683;48.650;9.290;2022-09-09T16:50:46;0.85;;;0.40;;
57856;SDS011;43683;48.650;9.290;2022-09-09T16:53:13;0.93;;;0.50;;
57856;SDS011;43683;48.650;9.290;2022-09-09T16:55:39;2.17;;;0.60;;
57856;SDS011;43683;48.650;9.290;2022-09-09T16:58:06;1.88;;;0.50;;
57856;SDS011;43683;48.650;9.290;2022-09-09T17:00:33;0.57;;;0.45;;
57856;SDS011;43683;48.650;9.290;2022-09-09T17:02:59;1.58;;;0.50;;
57856;SDS011;43683;48.650;9.290;2022-09-09T17:05:25;2.15;;;0.60;;
57856;SDS011;43683;48.650;9.290;2022-09-09T17:07:50;1.67;;;0.57;;
57856;SDS011;43683;48.650;9.290;2022-09-09T17:10:16;1.55;;;0.77;;
57856;SDS011;43683;48.650;9.290;2022-09-09T17:12:42;0.63;;;0.50;;
57856;SDS011;43683;48.650;9.290;2022-09-09T17:15:08;0.73;;;0.55;;
57856;SDS011;43683;48.650;9.290;2022-09-09T17:17:33;1.58;;;0.73;;
57856;SDS011;43683;48.650;9.290;2022-09-09T17:19:59;1.98;;;0.73;;
57856;SDS011;43683;48.650;9.290;2022-09-09T17:22:26;2.00;;;0.80;;